Time;durP1;ratioP1;P1;durP2;ratioP2;P2;SDS_P1;SDS_P2;PMS_P1;PMS_P2;Temp;Humidity;BMP_temperature;BMP_pressure;BME280_temperature;BME280_humidity;BME280_pressure;Samples;Min_cycle;Max_cycle;Signal;HPM_P1;HPM_P2
2022/04/21 00:01:19;;;;;;;13.20;11.63;;;6.90;99.90;;;;;;5048747;28;20938;-73
2022/04/21 00:03:46;;;;;;;15.70;12.60;;;6.60;99.90;;;;;;5048521;28;20540;-72
2022/04/21 00:06:13;;;;;;;18.60;12.73;;;6.60;99.90;;;;;;5048767;28;20481;-74
2022/04/21 00:08:41;;;;;;;14.00;11.87;;;6.70;99.90;;;;;;5048672;28;20465;-75
2022/04/21 00:11:09;;;;;;;16.57;13.00;;;6.70;99.90;;;;;;5050607;28;20538;-74
2022/04/21 00:13:37;;;;;;;13.57;11.80;;;6.70;99.90;;;;;;5052428;28;20543;-75
2022/04/21 00:16:04;;;;;;;13.87;12.00;;;6.70;99.90;;;;;;5052585;28;20923;-73
2022/04/21 00:18:31;;;;;;;15.90;12.00;;;6.70;99.90;;;;;;5052015;28;20462;-72
2022/04/21 00:21:01;;;;;;;15.83;12.80;;;6.50;99.90;;;;;;5051999;28;20553;-72
2022/04/21 00:23:27;;;;;;;13.67;11.70;;;6.50;99.90;;;;;;5052221;28;21065;-73
2022/04/21 00:25:55;;;;;;;13.30;11.23;;;6.40;99.90;;;;;;5052079;28;20572;-73
2022/04/21 00:28:23;;;;;;;14.33;11.50;;;6.40;99.90;;;;;;5052176;28;20478;-72
2022/04/21 00:30:50;;;;;;;13.57;11.40;;;6.40;99.90;;;;;;5052210;28;20933;-72
2022/04/21 00:33:18;;;;;;;13.93;11.40;;;6.40;99.90;;;;;;5051885;28;20481;-72
2022/04/21 00:35:45;;;;;;;13.57;11.17;;;6.30;99.90;;;;;;5052241;28;20806;-74
2022/04/21 00:38:12;;;;;;;13.20;10.13;;;6.30;99.90;;;;;;5052058;28;20461;-72
2022/04/21 00:40:39;;;;;;;14.50;11.03;;;6.20;99.90;;;;;;5051652;28;20458;-72
2022/04/21 00:43:07;;;;;;;13.90;10.30;;;6.20;99.90;;;;;;5051361;28;20486;-73
2022/04/21 00:45:35;;;;;;;17.30;13.10;;;6.10;99.90;;;;;;5051901;28;20494;-71
2022/04/21 00:48:05;;;;;;;15.23;12.50;;;6.10;99.90;;;;;;5051761;28;20466;-71
2022/04/21 00:50:35;;;;;;;15.90;11.17;;;6.00;99.90;;;;;;5051902;28;20461;-72
2022/04/21 00:53:03;;;;;;;12.73;10.87;;;6.00;99.90;;;;;;5051836;28;20478;-72
2022/04/21 00:55:32;;;;;;;14.03;11.13;;;6.00;99.90;;;;;;5052016;28;20450;-72
2022/04/21 00:58:01;;;;;;;13.97;11.00;;;6.00;99.90;;;;;;5051623;28;20480;-74
2022/04/21 01:00:28;;;;;;;14.57;11.50;;;5.90;99.90;;;;;;5051782;28;20452;-75
2022/04/21 01:02:57;;;;;;;13.80;10.70;;;5.70;99.90;;;;;;5051815;28;20477;-72
2022/04/21 01:05:33;;;;;;;15.03;11.57;;;5.80;99.90;;;;;;5051656;28;20528;-75
2022/04/21 01:08:01;;;;;;;14.27;11.60;;;5.90;99.90;;;;;;5051332;28;20495;-73
2022/04/21 01:10:30;;;;;;;15.20;11.67;;;6.00;99.90;;;;;;5051376;28;20485;-73
2022/04/21 01:12:58;;;;;;;15.03;12.47;;;5.80;99.90;;;;;;5051361;28;20500;-70
2022/04/21 01:15:25;;;;;;;12.17;10.87;;;5.80;99.90;;;;;;5051375;28;20549;-72
2022/04/21 01:17:54;;;;;;;15.60;11.70;;;5.90;99.90;;;;;;5051386;28;20454;-73
2022/04/21 01:20:23;;;;;;;13.20;10.60;;;5.90;99.90;;;;;;5051451;28;20811;-73
2022/04/21 01:22:51;;;;;;;14.33;12.00;;;5.90;99.90;;;;;;5050568;28;20536;-73
2022/04/21 01:25:19;;;;;;;14.40;11.83;;;5.90;99.90;;;;;;5050740;28;20494;-71
2022/04/21 01:27:47;;;;;;;14.93;12.47;;;5.80;99.90;;;;;;5051429;28;20902;-72
2022/04/21 01:30:15;;;;;;;13.87;12.33;;;5.80;99.90;;;;;;5051217;28;20454;-73
2022/04/21 01:32:43;;;;;;;15.27;12.27;;;5.70;99.90;;;;;;5049475;28;20474;-72
2022/04/21 01:35:11;;;;;;;12.60;10.90;;;5.80;99.90;;;;;;5051108;28;20805;-74
2022/04/21 01:43:10;;;;;;;16.80;12.53;;;5.70;99.90;;;;;;5050948;28;20429;-74
2022/04/21 01:45:38;;;;;;;17.33;13.23;;;5.70;99.90;;;;;;5050367;28;20500;-75
2022/04/21 01:48:06;;;;;;;16.27;13.00;;;5.60;99.90;;;;;;5049020;28;20460;-72
2022/04/21 01:50:33;;;;;;;15.07;11.63;;;5.60;99.90;;;;;;5050819;28;20524;-72
2022/04/21 01:53:02;;;;;;;17.00;13.57;;;5.70;99.90;;;;;;5050469;28;20474;-73
2022/04/21 01:55:29;;;;;;;14.33;12.10;;;5.70;99.90;;;;;;5050821;28;20446;-72
2022/04/21 01:57:56;;;;;;;16.87;12.53;;;5.60;99.90;;;;;;5050648;28;20449;-72
2022/04/21 02:00:24;;;;;;;18.13;14.07;;;5.50;99.90;;;;;;5050425;28;20527;-73
2022/04/21 02:02:51;;;;;;;16.43;12.17;;;5.40;99.90;;;;;;5050282;28;20481;-70
2022/04/21 02:05:18;;;;;;;15.67;12.63;;;5.30;99.90;;;;;;5050567;28;20552;-74
2022/04/21 02:07:46;;;;;;;16.33;13.77;;;5.30;99.90;;;;;;5050688;28;20453;-71
2022/04/21 02:10:17;;;;;;;16.90;12.80;;;5.30;99.90;;;;;;5050162;28;20462;-73
2022/04/21 02:12:45;;;;;;;16.60;13.23;;;5.30;99.90;;;;;;5050389;28;20476;-74
2022/04/21 02:15:13;;;;;;;13.40;11.27;;;5.50;99.90;;;;;;5049955;28;20454;-71
2022/04/21 02:17:40;;;;;;;14.60;12.77;;;5.50;99.90;;;;;;5050323;28;20461;-74
2022/04/21 02:20:10;;;;;;;16.13;14.37;;;5.50;99.90;;;;;;5050350;28;20529;-74
2022/04/21 02:22:38;;;;;;;15.50;12.50;;;5.50;99.90;;;;;;5048519;28;20525;-71
2022/04/21 02:25:06;;;;;;;15.23;12.50;;;5.50;99.90;;;;;;5050027;28;20508;-74
2022/04/21 02:27:36;;;;;;;14.93;12.93;;;5.60;99.90;;;;;;5050079;28;20497;-72
2022/04/21 02:30:04;;;;;;;14.47;12.97;;;5.70;99.90;;;;;;5050010;28;20938;-74
2022/04/21 02:32:31;;;;;;;14.27;12.47;;;5.70;99.90;;;;;;5050032;28;20481;-71
2022/04/21 02:34:58;;;;;;;15.23;12.63;;;5.60;99.90;;;;;;5049284;28;20458;-72
2022/04/21 02:37:25;;;;;;;15.77;12.77;;;5.70;99.90;;;;;;5049849;28;20454;-73
2022/04/21 02:39:52;;;;;;;15.47;13.23;;;5.80;99.90;;;;;;5049887;28;20826;-73
2022/04/21 02:42:20;;;;;;;15.90;13.30;;;5.80;99.90;;;;;;5049636;28;20457;-74
2022/04/21 02:44:49;;;;;;;18.43;14.30;;;5.70;99.90;;;;;;5049519;28;21044;-72
2022/04/21 02:47:17;;;;;;;16.30;14.00;;;5.60;99.90;;;;;;5050080;28;20496;-73
2022/04/21 02:49:47;;;;;;;16.67;13.60;;;5.60;99.90;;;;;;5049786;28;20513;-74
2022/04/21 02:52:15;;;;;;;15.83;13.30;;;5.60;99.90;;;;;;5049686;28;20457;-73
2022/04/21 02:57:28;;;;;;;17.30;13.93;;;5.60;99.90;;;;;;5049544;28;20484;-71
2022/04/21 02:59:57;;;;;;;18.70;14.30;;;5.50;99.90;;;;;;5049392;28;20456;-71
2022/04/21 03:02:25;;;;;;;15.37;13.60;;;5.60;99.90;;;;;;5049574;28;21008;-74
2022/04/21 03:04:52;;;;;;;17.23;13.47;;;5.60;99.90;;;;;;5049356;28;20454;-76
2022/04/21 03:07:22;;;;;;;15.03;13.13;;;5.50;99.90;;;;;;5049429;28;20915;-72
2022/04/21 03:09:49;;;;;;;19.17;14.40;;;5.60;99.90;;;;;;5049052;28;20465;-71
2022/04/21 03:12:16;;;;;;;16.17;13.60;;;5.60;99.90;;;;;;5049603;28;20461;-73
2022/04/21 03:14:44;;;;;;;16.57;13.57;;;5.70;99.90;;;;;;5049347;28;20477;-72
2022/04/21 03:17:12;;;;;;;16.87;13.17;;;5.60;99.90;;;;;;5049666;28;20445;-72
2022/04/21 03:19:39;;;;;;;16.60;14.00;;;5.50;99.90;;;;;;5049721;28;20453;-72
2022/04/21 03:24:54;;;;;;;17.33;13.90;;;5.40;99.90;;;;;;5049358;28;20929;-74
2022/04/21 03:27:21;;;;;;;27.00;20.00;;;5.50;99.90;;;;;;5049336;28;20490;-75
2022/04/21 03:29:48;;;;;;;23.53;18.47;;;5.50;99.90;;;;;;5049427;28;20457;-72
2022/04/21 03:32:17;;;;;;;15.40;12.30;;;5.50;99.90;;;;;;5048818;28;20450;-73
2022/04/21 03:34:45;;;;;;;16.50;14.10;;;5.50;99.90;;;;;;5048765;28;21008;-71
2022/04/21 03:37:14;;;;;;;17.10;13.30;;;5.40;99.90;;;;;;5049202;28;20790;-73
2022/04/21 03:39:41;;;;;;;15.77;12.50;;;5.30;99.90;;;;;;5049006;28;21000;-71
2022/04/21 03:42:18;;;;;;;16.87;13.80;;;5.30;99.90;;;;;;5049042;28;20454;-73
2022/04/21 03:44:45;;;;;;;19.67;15.10;;;5.30;99.90;;;;;;5048966;28;20469;-73
2022/04/21 03:47:12;;;;;;;16.30;13.20;;;5.30;99.90;;;;;;5052592;28;20490;-76
2022/04/21 03:49:41;;;;;;;14.70;12.10;;;5.50;99.90;;;;;;5052902;28;20481;-77
2022/04/21 03:52:09;;;;;;;15.27;12.60;;;5.50;99.90;;;;;;5053030;28;20454;-73
2022/04/21 03:54:37;;;;;;;16.93;11.97;;;5.60;99.90;;;;;;5052884;28;20482;-74
2022/04/21 03:57:04;;;;;;;39.83;28.63;;;5.60;99.90;;;;;;5052825;28;20549;-75
2022/04/21 03:59:32;;;;;;;17.13;14.53;;;5.60;99.90;;;;;;5052525;28;20946;-75
2022/04/21 04:02:02;;;;;;;25.27;15.63;;;5.70;99.90;;;;;;5053065;28;20485;-77
2022/04/21 04:04:30;;;;;;;18.43;12.67;;;5.70;99.90;;;;;;5052674;28;20473;-76
2022/04/21 04:12:31;;;;;;;16.60;13.90;;;5.70;99.90;;;;;;5052288;28;20892;-77
2022/04/21 04:14:59;;;;;;;16.70;14.70;;;5.90;99.90;;;;;;5052441;28;21033;-74
2022/04/21 04:17:26;;;;;;;16.33;14.07;;;6.00;99.90;;;;;;5052344;28;20450;-73
2022/04/21 04:19:54;;;;;;;19.67;15.20;;;6.10;99.90;;;;;;5052337;28;20462;-76
2022/04/21 04:22:23;;;;;;;22.30;16.90;;;6.10;99.90;;;;;;5052047;28;20457;-76
2022/04/21 04:24:54;;;;;;;20.93;18.17;;;6.20;99.90;;;;;;5051951;28;20481;-71
2022/04/21 04:27:21;;;;;;;22.10;19.67;;;6.40;99.90;;;;;;5052179;28;20584;-76
2022/04/21 04:29:49;;;;;;;25.00;20.47;;;6.50;99.90;;;;;;5052273;28;20460;-73
2022/04/21 04:32:16;;;;;;;23.13;19.33;;;6.50;99.90;;;;;;5052241;28;20465;-70
2022/04/21 04:34:43;;;;;;;21.23;18.10;;;6.60;99.90;;;;;;5051771;28;20542;-74
2022/04/21 04:37:10;;;;;;;22.80;19.47;;;6.70;99.90;;;;;;5051936;28;20450;-76
2022/04/21 04:39:39;;;;;;;22.37;19.63;;;6.70;99.90;;;;;;5052133;28;20818;-74
2022/04/21 04:42:20;;;;;;;20.83;17.57;;;6.80;99.90;;;;;;5052916;28;20446;-74
2022/04/21 04:44:49;;;;;;;24.53;20.37;;;6.80;99.90;;;;;;5052309;28;20564;-75
2022/04/21 04:47:15;;;;;;;29.70;21.70;;;7.00;99.90;;;;;;5050351;28;20480;-74
2022/04/21 04:49:43;;;;;;;23.70;20.13;;;6.90;99.90;;;;;;5051428;28;20482;-75
2022/04/21 04:52:10;;;;;;;21.40;17.50;;;6.90;99.90;;;;;;5051531;28;20477;-77
2022/04/21 04:54:38;;;;;;;21.33;19.03;;;7.00;99.90;;;;;;5051662;28;20562;-73
2022/04/21 04:57:06;;;;;;;22.33;17.40;;;7.00;99.90;;;;;;5050731;28;20476;-73
2022/04/21 04:59:33;;;;;;;18.87;16.87;;;7.10;99.90;;;;;;5051788;28;21063;-72
2022/04/21 05:02:01;;;;;;;19.07;16.70;;;7.20;99.90;;;;;;5051226;28;20492;-73
2022/04/21 05:04:28;;;;;;;17.70;15.37;;;7.20;99.90;;;;;;5051587;28;20492;-73
2022/04/21 05:06:57;;;;;;;17.50;14.20;;;7.30;99.90;;;;;;5051170;28;20538;-71
2022/04/21 05:09:25;;;;;;;15.60;13.67;;;7.30;99.90;;;;;;5051475;28;20453;-72
2022/04/21 05:11:55;;;;;;;15.63;12.33;;;7.40;99.90;;;;;;5051493;28;20473;-72
2022/04/21 05:14:23;;;;;;;16.33;13.27;;;7.40;99.90;;;;;;5051208;28;20484;-72
2022/04/21 05:16:51;;;;;;;14.07;11.53;;;7.40;99.90;;;;;;5051174;28;20957;-71
2022/04/21 05:19:21;;;;;;;14.70;10.37;;;7.40;99.90;;;;;;5051245;28;20477;-75
2022/04/21 05:21:50;;;;;;;12.23;10.87;;;7.30;99.90;;;;;;5051437;28;20461;-72
2022/04/21 05:24:17;;;;;;;16.00;11.67;;;7.30;99.90;;;;;;5051199;28;20478;-71
2022/04/21 05:26:46;;;;;;;16.63;13.63;;;7.40;99.90;;;;;;5051042;28;20498;-71
2022/04/21 05:32:02;;;;;;;15.13;12.20;;;7.40;99.90;;;;;;5050967;28;20441;-70
2022/04/21 05:34:31;;;;;;;16.70;13.33;;;7.40;99.90;;;;;;5050605;28;20482;-71
2022/04/21 05:36:59;;;;;;;16.70;14.87;;;7.50;99.90;;;;;;5050895;28;20449;-71
2022/04/21 05:39:27;;;;;;;17.27;14.47;;;7.40;99.90;;;;;;5050789;28;20562;-72
2022/04/21 05:41:56;;;;;;;17.63;15.73;;;7.30;99.90;;;;;;5050615;28;20458;-72
2022/04/21 05:44:25;;;;;;;19.57;15.20;;;7.10;99.90;;;;;;5050698;28;20564;-72
2022/04/21 05:46:53;;;;;;;19.40;14.57;;;6.90;99.90;;;;;;5050500;28;20493;-71
2022/04/21 05:49:21;;;;;;;18.87;15.80;;;6.80;99.90;;;;;;5050363;28;20482;-72
2022/04/21 05:51:48;;;;;;;17.37;14.77;;;7.00;99.90;;;;;;5051191;28;20458;-71
2022/04/21 05:54:16;;;;;;;17.93;16.03;;;7.10;99.90;;;;;;5050442;28;20470;-72
2022/04/21 05:56:47;;;;;;;18.47;15.30;;;7.40;99.90;;;;;;5051051;28;20458;-74
2022/04/21 05:59:14;;;;;;;19.97;17.20;;;7.50;99.90;;;;;;5050815;28;20495;-75
2022/04/21 06:01:43;;;;;;;19.53;16.13;;;7.70;99.90;;;;;;5063890;28;20465;-76
2022/04/21 06:04:10;;;;;;;19.43;15.80;;;7.80;99.90;;;;;;5061202;28;20774;-76
2022/04/21 06:06:39;;;;;;;19.17;17.03;;;7.60;99.90;;;;;;5051339;28;21142;-77
2022/04/21 06:09:06;;;;;;;18.63;16.23;;;7.70;99.90;;;;;;5050642;28;20888;-78
2022/04/21 06:11:35;;;;;;;19.40;16.60;;;7.50;99.90;;;;;;5050729;28;20484;-76
2022/04/21 06:14:02;;;;;;;23.20;19.57;;;7.60;99.90;;;;;;5050747;28;20568;-75
2022/04/21 06:16:29;;;;;;;22.57;17.47;;;7.50;99.90;;;;;;5050539;28;20457;-76
2022/04/21 06:18:57;;;;;;;21.73;18.00;;;7.40;99.90;;;;;;5050242;28;20482;-73
2022/04/21 06:21:24;;;;;;;25.93;20.80;;;7.50;99.90;;;;;;5049981;28;20459;-73
2022/04/21 06:23:52;;;;;;;24.57;19.13;;;7.50;99.90;;;;;;5050022;28;20481;-74
2022/04/21 06:26:19;;;;;;;27.70;21.67;;;7.50;99.90;;;;;;5049818;28;20492;-73
2022/04/21 06:28:47;;;;;;;27.13;21.27;;;7.50;99.90;;;;;;5049702;28;20461;-73
2022/04/21 06:31:14;;;;;;;24.87;20.43;;;7.40;99.90;;;;;;5049916;28;20466;-73
2022/04/21 06:33:41;;;;;;;22.80;20.30;;;7.40;99.90;;;;;;5049219;28;20477;-74
2022/04/21 06:36:10;;;;;;;24.70;20.77;;;7.60;99.90;;;;;;5049690;28;20461;-73
2022/04/21 06:38:37;;;;;;;26.00;20.07;;;7.70;99.90;;;;;;5049731;28;20461;-74
2022/04/21 06:41:04;;;;;;;22.83;20.43;;;7.90;99.90;;;;;;5049941;28;20454;-73
2022/04/21 06:49:11;;;;;;;19.53;16.33;;;8.40;99.90;;;;;;5044279;28;20535;-72
2022/04/21 06:51:40;;;;;;;23.23;18.07;;;8.30;99.90;;;;;;5049724;28;20454;-74
2022/04/21 06:54:09;;;;;;;19.43;16.57;;;8.30;99.90;;;;;;5049821;28;20970;-68
2022/04/21 06:56:36;;;;;;;23.67;18.63;;;8.30;99.90;;;;;;5049447;28;20454;-69
2022/04/21 06:59:05;;;;;;;18.77;15.47;;;8.40;99.90;;;;;;5049414;28;20461;-69
2022/04/21 07:01:32;;;;;;;18.30;15.00;;;8.40;99.90;;;;;;5049363;28;20458;-67
2022/04/21 07:03:59;;;;;;;19.60;16.27;;;8.40;99.90;;;;;;5049321;28;20501;-68
2022/04/21 07:06:27;;;;;;;23.10;17.60;;;8.40;99.90;;;;;;5049429;28;20493;-70
2022/04/21 07:08:55;;;;;;;19.67;16.40;;;8.70;99.90;;;;;;5049260;28;20458;-72
2022/04/21 07:11:22;;;;;;;14.43;12.93;;;9.00;99.90;;;;;;5049133;28;20466;-73
2022/04/21 07:13:49;;;;;;;14.90;12.77;;;9.20;99.90;;;;;;5049198;28;20481;-72
2022/04/21 07:16:17;;;;;;;16.60;14.60;;;9.40;99.90;;;;;;5049040;28;20462;-71
2022/04/21 07:18:44;;;;;;;18.73;15.77;;;9.40;99.90;;;;;;5049171;28;20812;-71
2022/04/21 07:21:11;;;;;;;15.60;13.90;;;9.50;99.90;;;;;;5054373;28;20448;-71
2022/04/21 07:23:39;;;;;;;15.07;12.80;;;9.70;99.90;;;;;;5055843;28;20469;-72
2022/04/21 07:26:07;;;;;;;13.20;11.10;;;9.90;99.90;;;;;;5055655;28;20793;-72
2022/04/21 07:28:34;;;;;;;15.70;13.90;;;10.00;99.90;;;;;;5055522;28;20497;-72
2022/04/21 07:31:01;;;;;;;14.73;13.13;;;10.20;99.90;;;;;;5055801;28;20461;-74
2022/04/21 07:33:28;;;;;;;16.30;13.17;;;10.40;99.90;;;;;;5055602;28;20793;-73
2022/04/21 07:35:55;;;;;;;15.90;14.20;;;10.40;99.90;;;;;;5055749;28;20933;-73
2022/04/21 07:38:23;;;;;;;14.50;11.40;;;10.60;99.90;;;;;;5055396;28;20454;-73
2022/04/21 07:40:53;;;;;;;17.50;11.87;;;10.80;99.90;;;;;;5055670;28;20462;-73
2022/04/21 07:43:22;;;;;;;12.27;10.50;;;10.80;99.90;;;;;;5055649;28;20469;-72
2022/04/21 07:45:50;;;;;;;15.07;10.77;;;10.80;99.90;;;;;;5055800;28;20457;-73
2022/04/21 07:48:17;;;;;;;15.10;10.73;;;10.90;99.90;;;;;;5055413;28;20523;-72
2022/04/21 07:50:45;;;;;;;12.10;10.70;;;11.00;99.90;;;;;;5055776;28;20541;-73
2022/04/21 07:53:14;;;;;;;14.97;12.37;;;11.10;99.90;;;;;;5055549;28;20897;-73
2022/04/21 07:55:42;;;;;;;12.80;11.33;;;11.40;99.90;;;;;;5055392;28;20516;-73
2022/04/21 07:58:10;;;;;;;15.10;13.17;;;11.60;99.90;;;;;;5055697;28;20452;-72
2022/04/21 08:00:40;;;;;;;14.17;12.67;;;11.60;99.90;;;;;;5055622;28;20469;-73
2022/04/21 08:03:09;;;;;;;26.27;20.57;;;11.30;99.90;;;;;;5055609;28;21300;-73
2022/04/21 08:05:36;;;;;;;20.10;14.07;;;11.30;99.90;;;;;;5055257;28;20476;-71
2022/04/21 08:08:04;;;;;;;21.23;16.63;;;11.40;99.90;;;;;;5055063;28;21023;-72
2022/04/21 08:10:31;;;;;;;19.70;16.47;;;11.60;99.90;;;;;;5055364;28;20465;-73
2022/04/21 08:12:59;;;;;;;21.67;16.70;;;11.80;99.90;;;;;;5055463;28;20470;-73
2022/04/21 08:15:28;;;;;;;15.37;13.57;;;11.90;99.90;;;;;;5055582;28;20454;-72
2022/04/21 08:17:57;;;;;;;16.40;13.70;;;12.20;99.90;;;;;;5055244;28;20458;-72
2022/04/21 08:20:26;;;;;;;18.10;13.30;;;12.30;99.90;;;;;;5055351;28;20453;-70
2022/04/21 08:22:53;;;;;;;16.17;13.97;;;12.40;99.90;;;;;;5055070;28;20535;-72
2022/04/21 08:33:36;;;;;;;18.20;14.40;;;12.90;99.90;;;;;;5051813;28;20568;-72
2022/04/21 08:36:05;;;;;;;15.80;13.50;;;13.00;99.90;;;;;;5052106;28;20458;-71
2022/04/21 08:38:33;;;;;;;17.53;13.73;;;13.10;99.90;;;;;;5051990;28;20477;-72
2022/04/21 08:41:05;;;;;;;15.53;13.77;;;13.10;99.90;;;;;;5051589;28;20485;-70
2022/04/21 08:43:34;;;;;;;14.67;13.10;;;13.20;99.90;;;;;;5051577;28;20469;-72
2022/04/21 08:46:02;;;;;;;19.43;14.17;;;13.40;99.90;;;;;;5051864;28;20531;-73
2022/04/21 08:48:30;;;;;;;15.37;12.87;;;13.40;99.90;;;;;;5051652;28;20588;-73
2022/04/21 08:50:59;;;;;;;16.43;14.77;;;13.10;99.90;;;;;;5051874;28;20576;-72
2022/04/21 08:53:26;;;;;;;15.10;13.40;;;13.10;99.90;;;;;;5051158;28;20857;-72
2022/04/21 08:55:54;;;;;;;13.83;12.33;;;13.00;99.90;;;;;;5051788;28;20454;-71
2022/04/21 08:58:21;;;;;;;15.20;13.30;;;13.00;99.90;;;;;;5051598;28;20449;-73
2022/04/21 09:00:51;;;;;;;19.70;14.03;;;13.00;99.90;;;;;;5052044;28;20457;-73
2022/04/21 09:03:19;;;;;;;20.20;15.80;;;13.00;99.90;;;;;;5051917;28;20477;-71
2022/04/21 09:05:46;;;;;;;16.17;14.57;;;13.20;99.90;;;;;;5051585;28;20810;-72
2022/04/21 09:08:22;;;;;;;15.90;14.30;;;13.30;99.90;;;;;;5051308;28;20485;-72
2022/04/21 09:11:03;;;;;;;18.40;15.27;;;13.40;99.90;;;;;;5051183;28;20473;-72
2022/04/21 09:13:35;;;;;;;20.77;15.37;;;13.40;99.70;;;;;;5051757;28;20590;-73
2022/04/21 09:16:03;;;;;;;17.43;15.20;;;13.50;99.50;;;;;;5051371;28;20461;-73
2022/04/21 09:18:37;;;;;;;17.90;15.70;;;13.60;99.90;;;;;;5050974;28;20458;-72
2022/04/21 09:21:07;;;;;;;18.23;16.23;;;13.50;99.90;;;;;;5051107;28;20543;-71
2022/04/21 09:23:36;;;;;;;19.03;16.17;;;13.60;99.00;;;;;;5051076;28;20666;-73
2022/04/21 09:26:11;;;;;;;24.53;17.10;;;13.70;99.30;;;;;;5051087;28;20465;-72
2022/04/21 09:28:39;;;;;;;19.83;17.10;;;13.70;99.40;;;;;;5050553;28;20488;-72
2022/04/21 09:31:08;;;;;;;24.27;19.93;;;13.70;99.90;;;;;;5050486;28;20954;-72
2022/04/21 09:33:36;;;;;;;19.97;17.87;;;13.70;99.90;;;;;;5051084;28;20569;-73
2022/04/21 09:36:05;;;;;;;22.67;18.17;;;13.90;99.90;;;;;;5049529;28;20954;-72
2022/04/21 09:38:33;;;;;;;20.90;18.63;;;13.90;99.80;;;;;;5051113;28;20449;-71
2022/04/21 09:41:08;;;;;;;18.63;16.67;;;13.90;99.90;;;;;;5050931;28;20482;-72
2022/04/21 09:43:37;;;;;;;19.10;15.90;;;14.00;99.40;;;;;;5050138;28;20477;-72
2022/04/21 09:46:13;;;;;;;17.77;15.57;;;14.10;99.60;;;;;;5050866;28;20461;-72
2022/04/21 09:48:41;;;;;;;19.40;15.30;;;14.20;98.70;;;;;;5051551;28;20493;-73
2022/04/21 09:51:12;;;;;;;17.90;15.50;;;14.20;99.50;;;;;;5050862;28;20453;-72
2022/04/21 09:53:50;;;;;;;17.00;15.20;;;14.10;98.60;;;;;;5050521;28;20873;-72
2022/04/21 09:56:29;;;;;;;18.33;16.50;;;14.20;98.50;;;;;;5050710;28;20453;-71
2022/04/21 09:58:57;;;;;;;18.50;16.43;;;14.20;97.90;;;;;;5050726;28;20798;-72
2022/04/21 10:01:24;;;;;;;18.37;16.33;;;14.10;98.60;;;;;;5051521;28;20453;-71
2022/04/21 10:03:53;;;;;;;20.40;17.47;;;14.10;97.80;;;;;;5051578;28;20466;-72
2022/04/21 10:06:22;;;;;;;20.43;16.87;;;14.00;98.40;;;;;;5050766;28;20454;-72
2022/04/21 10:08:50;;;;;;;19.33;17.30;;;14.10;98.50;;;;;;5050097;28;20652;-73
2022/04/21 10:11:23;;;;;;;19.87;17.53;;;14.10;99.40;;;;;;5050230;28;20465;-72
2022/04/21 10:13:54;;;;;;;18.33;16.40;;;14.20;99.30;;;;;;5050212;28;20480;-73
2022/04/21 10:16:21;;;;;;;18.17;16.27;;;14.20;99.30;;;;;;5050378;28;20858;-72
2022/04/21 10:18:50;;;;;;;21.33;16.60;;;13.90;99.00;;;;;;5049826;28;20953;-73
2022/04/21 10:21:21;;;;;;;21.23;16.00;;;14.10;99.70;;;;;;5049904;28;20453;-71
2022/04/21 10:23:49;;;;;;;21.70;17.83;;;14.20;99.70;;;;;;5049565;28;20524;-72
2022/04/21 10:26:37;;;;;;;23.87;17.70;;;14.30;99.40;;;;;;5049877;28;20533;-71
2022/04/21 10:29:12;;;;;;;23.03;17.60;;;14.40;99.50;;;;;;5050027;28;21004;-73
2022/04/21 10:31:54;;;;;;;19.30;16.57;;;14.20;99.90;;;;;;5049728;28;20536;-72
2022/04/21 10:34:31;;;;;;;19.30;17.03;;;14.30;99.90;;;;;;5049844;28;20856;-73
2022/04/21 10:37:15;;;;;;;18.20;15.93;;;14.40;99.70;;;;;;5049804;28;20544;-71
2022/04/21 10:40:04;;;;;;;15.83;14.23;;;14.30;99.50;;;;;;5049716;28;20465;-72
2022/04/21 10:42:57;;;;;;;16.00;14.03;;;14.20;99.90;;;;;;5049627;28;20477;-72
2022/04/21 10:45:26;;;;;;;20.63;15.73;;;14.30;99.90;;;;;;5049762;28;20457;-73
2022/04/21 10:48:05;;;;;;;18.07;16.17;;;14.30;99.90;;;;;;5049852;28;20926;-73
2022/04/21 10:50:33;;;;;;;18.23;16.30;;;14.30;99.40;;;;;;5049498;28;20482;-74
2022/04/21 10:58:56;;;;;;;15.40;13.67;;;14.40;99.90;;;;;;5049356;28;20808;-72
2022/04/21 11:01:28;;;;;;;16.10;14.37;;;14.50;99.90;;;;;;5049598;28;20457;-72
2022/04/21 11:04:12;;;;;;;16.83;13.47;;;14.60;99.90;;;;;;5049363;28;20465;-73
2022/04/21 11:06:42;;;;;;;16.70;14.90;;;15.00;99.90;;;;;;5049419;28;20454;-72
2022/04/21 11:09:10;;;;;;;17.37;15.57;;;15.20;99.90;;;;;;5049098;28;20540;-72
2022/04/21 11:11:47;;;;;;;14.93;13.30;;;15.40;99.30;;;;;;5049000;28;20453;-72
2022/04/21 11:14:28;;;;;;;15.63;13.87;;;15.80;98.50;;;;;;5049120;28;20501;-73
2022/04/21 11:16:57;;;;;;;16.63;14.10;;;16.00;97.90;;;;;;5049118;28;20954;-72
2022/04/21 11:19:34;;;;;;;15.13;13.47;;;16.20;97.90;;;;;;5049092;28;20453;-72
2022/04/21 11:22:03;;;;;;;17.57;14.30;;;16.30;96.80;;;;;;5048656;28;20453;-71
2022/04/21 11:25:01;;;;;;;16.10;14.50;;;16.40;97.80;;;;;;5048993;28;21012;-71
2022/04/21 11:27:29;;;;;;;15.63;14.03;;;16.50;97.60;;;;;;5049136;28;20454;-71
2022/04/21 11:30:02;;;;;;;15.93;14.30;;;16.80;96.50;;;;;;5048980;28;20464;-71
2022/04/21 11:32:29;;;;;;;21.40;14.90;;;17.10;95.90;;;;;;5048814;28;20477;-71
2022/04/21 11:35:01;;;;;;;14.73;13.10;;;17.10;95.50;;;;;;5048600;28;20958;-71
2022/04/21 11:37:47;;;;;;;22.53;20.20;;;17.00;95.60;;;;;;5049078;28;20465;-71
2022/04/21 11:40:25;;;;;;;17.60;13.53;;;17.40;94.40;;;;;;5047941;28;20943;-70
2022/04/21 11:42:53;;;;;;;16.73;13.17;;;17.60;94.30;;;;;;5048894;28;20469;-70
2022/04/21 11:45:24;;;;;;;16.30;12.93;;;17.70;94.90;;;;;;5048522;28;20942;-71
2022/04/21 11:47:51;;;;;;;14.20;12.27;;;18.10;94.40;;;;;;5048966;28;20905;-70
2022/04/21 11:50:27;;;;;;;14.27;12.77;;;18.60;93.50;;;;;;5047383;28;20985;-71
2022/04/21 11:52:55;;;;;;;14.03;12.53;;;19.00;91.50;;;;;;5048618;28;20469;-72
2022/04/21 11:55:24;;;;;;;15.00;12.73;;;19.20;91.40;;;;;;5048992;28;20454;-70
2022/04/21 11:57:51;;;;;;;12.17;10.90;;;19.30;91.60;;;;;;5048630;28;20454;-71
2022/04/21 12:06:28;;;;;;;15.93;11.03;;;19.50;90.00;;;;;;5048589;28;20466;-72
2022/04/21 12:08:45;;;;;;;11.20;10.00;;;18.90;89.20;;;;;;5052785;28;20815;-71
2022/04/21 12:11:14;;;;;;;12.33;11.03;;;19.00;88.80;;;;;;5052349;28;20959;-71
2022/04/21 12:13:42;;;;;;;11.47;10.37;;;18.90;87.60;;;;;;5052369;28;20473;-71
2022/04/21 12:16:40;;;;;;;10.70;9.60;;;18.70;86.70;;;;;;5052278;28;20541;-70
2022/04/21 12:19:32;;;;;;;13.27;9.40;;;18.30;88.70;;;;;;5052519;28;20460;-70
2022/04/21 12:22:02;;;;;;;11.63;10.53;;;18.30;87.90;;;;;;5048419;28;20484;-70
2022/04/21 12:24:34;;;;;;;11.00;9.90;;;18.30;88.30;;;;;;5052292;28;20872;-70
2022/04/21 12:27:03;;;;;;;10.83;9.53;;;18.40;87.20;;;;;;5051892;28;20460;-71
2022/04/21 12:29:31;;;;;;;11.10;9.37;;;18.10;87.90;;;;;;5052044;28;20508;-71
2022/04/21 12:32:02;;;;;;;14.70;10.93;;;17.90;88.70;;;;;;5052117;28;20464;-71
2022/04/21 12:34:33;;;;;;;16.77;10.27;;;17.80;89.00;;;;;;5051757;28;20564;-78
2022/04/21 12:37:01;;;;;;;16.30;11.73;;;17.90;90.30;;;;;;5051973;28;20755;-73
2022/04/21 12:39:30;;;;;;;12.23;10.00;;;18.00;90.70;;;;;;5051503;28;20454;-74
2022/04/21 12:41:58;;;;;;;11.73;10.47;;;18.20;89.80;;;;;;5051999;28;20525;-74
2022/04/21 12:44:27;;;;;;;12.70;10.07;;;18.40;89.00;;;;;;5051626;28;20481;-74
2022/04/21 12:46:58;;;;;;;13.50;12.10;;;18.30;90.00;;;;;;5051789;28;20457;-73
2022/04/21 12:49:40;;;;;;;13.30;11.90;;;18.50;90.90;;;;;;5051719;28;20551;-72
2022/04/21 12:52:09;;;;;;;14.10;11.60;;;18.60;91.40;;;;;;5051610;28;20454;-72
2022/04/21 12:54:37;;;;;;;12.83;11.53;;;18.90;90.70;;;;;;5051804;28;20572;-73
2022/04/21 12:57:07;;;;;;;13.10;11.80;;;19.20;90.70;;;;;;5051656;28;20954;-73
2022/04/21 12:59:34;;;;;;;15.17;13.63;;;18.80;90.60;;;;;;5051364;28;20511;-73
2022/04/21 13:02:01;;;;;;;14.80;12.87;;;18.80;90.20;;;;;;5051061;28;20468;-74
2022/04/21 13:04:28;;;;;;;15.60;13.37;;;19.00;90.20;;;;;;5051217;28;20482;-73
2022/04/21 13:06:55;;;;;;;12.97;11.53;;;19.30;91.20;;;;;;5051461;28;20462;-73
2022/04/21 13:09:24;;;;;;;14.27;11.77;;;19.70;88.70;;;;;;5051353;28;20482;-74
2022/04/21 13:11:51;;;;;;;13.10;10.77;;;19.90;86.80;;;;;;5051089;28;20810;-73
2022/04/21 13:14:18;;;;;;;14.90;13.47;;;20.00;85.30;;;;;;5050797;28;20474;-72
2022/04/21 13:16:45;;;;;;;14.10;12.60;;;20.10;85.30;;;;;;5051102;28;20458;-73
2022/04/21 13:19:12;;;;;;;17.20;15.40;;;20.20;84.60;;;;;;5050097;28;20446;-73
2022/04/21 13:21:55;;;;;;;12.13;10.20;;;20.30;84.60;;;;;;5051018;28;20457;-72
2022/04/21 13:24:25;;;;;;;13.70;9.93;;;20.40;86.80;;;;;;5050620;28;20477;-73
2022/04/21 13:26:53;;;;;;;13.37;11.90;;;20.60;86.40;;;;;;5051212;28;20462;-72
2022/04/21 13:29:21;;;;;;;15.03;13.40;;;20.90;80.90;;;;;;5050826;28;20517;-73